sensor_id;sensor_type;location;lat;lon;timestamp;pressure;altitude;pressure_sealevel;temperature;humidity
55317;BME280;41178;48.956;8.130;2022-10-31T00:04:05;100201.59;;;16.76;51.86
55317;BME280;41178;48.956;8.130;2022-10-31T00:09:06;100144.38;;;18.60;48.69
55317;BME280;41178;48.956;8.130;2022-10-31T00:14:08;100177.38;;;18.39;48.72
55317;BME280;41178;48.956;8.130;2022-10-31T00:19:10;100224.38;;;17.32;51.02
55317;BME280;41178;48.956;8.130;2022-10-31T00:24:11;100193.47;;;17.97;49.53
55317;BME280;41178;48.956;8.130;2022-10-31T00:29:13;100196.13;;;16.89;50.13
55317;BME280;41178;48.956;8.130;2022-10-31T00:34:15;100194.56;;;17.89;48.93
55317;BME280;41178;48.956;8.130;2022-10-31T00:39:16;100201.34;;;17.98;48.98
55317;BME280;41178;48.956;8.130;2022-10-31T00:44:18;100210.25;;;17.55;49.46
55317;BME280;41178;48.956;8.130;2022-10-31T00:49:19;100170.44;;;18.24;48.68
55317;BME280;41178;48.956;8.130;2022-10-31T00:54:27;100198.16;;;17.83;49.36
55317;BME280;41178;48.956;8.130;2022-10-31T00:59:29;100219.78;;;16.49;51.84
55317;BME280;41178;48.956;8.130;2022-10-31T01:04:30;100216.50;;;17.24;50.43
55317;BME280;41178;48.956;8.130;2022-10-31T01:09:32;100217.38;;;16.79;51.43
55317;BME280;41178;48.956;8.130;2022-10-31T01:14:34;100175.63;;;17.39;50.33
55317;BME280;41178;48.956;8.130;2022-10-31T01:19:35;100158.03;;;18.17;48.62
55317;BME280;41178;48.956;8.130;2022-10-31T01:24:37;100212.75;;;16.86;50.74
55317;BME280;41178;48.956;8.130;2022-10-31T01:29:39;100181.25;;;17.37;50.53
55317;BME280;41178;48.956;8.130;2022-10-31T01:34:40;100196.00;;;15.72;53.35
55317;BME280;41178;48.956;8.130;2022-10-31T01:39:42;100204.97;;;15.66;53.57
55317;BME280;41178;48.956;8.130;2022-10-31T01:44:50;100178.97;;;16.05;53.00
55317;BME280;41178;48.956;8.130;2022-10-31T01:49:55;100185.19;;;15.52;53.30
55317;BME280;41178;48.956;8.130;2022-10-31T01:55:30;100181.38;;;16.78;50.66
55317;BME280;41178;48.956;8.130;2022-10-31T02:00:34;100155.94;;;17.31;48.81
55317;BME280;41178;48.956;8.130;2022-10-31T02:05:35;100210.75;;;16.68;49.96
55317;BME280;41178;48.956;8.130;2022-10-31T02:10:37;100207.16;;;16.81;49.78
55317;BME280;41178;48.956;8.130;2022-10-31T02:15:40;100188.94;;;17.08;49.77
55317;BME280;41178;48.956;8.130;2022-10-31T02:42:26;100178.81;;;16.58;51.21
55317;BME280;41178;48.956;8.130;2022-10-31T02:47:34;100173.75;;;17.64;48.49
55317;BME280;41178;48.956;8.130;2022-10-31T02:52:38;100204.97;;;17.10;49.23
55317;BME280;41178;48.956;8.130;2022-10-31T02:57:41;100207.66;;;16.65;50.07
55317;BME280;41178;48.956;8.130;2022-10-31T03:08:20;100183.41;;;17.28;49.36
55317;BME280;41178;48.956;8.130;2022-10-31T03:13:46;100193.50;;;17.14;49.48
55317;BME280;41178;48.956;8.130;2022-10-31T03:19:02;100213.66;;;15.95;51.07
55317;BME280;41178;48.956;8.130;2022-10-31T03:24:08;100182.25;;;17.17;49.44
55317;BME280;41178;48.956;8.130;2022-10-31T03:29:14;100210.72;;;16.75;49.67
55317;BME280;41178;48.956;8.130;2022-10-31T03:34:18;100221.75;;;15.61;51.54
55317;BME280;41178;48.956;8.130;2022-10-31T03:39:22;100216.31;;;16.21;50.61
55317;BME280;41178;48.956;8.130;2022-10-31T03:44:26;100193.28;;;16.71;49.95
55317;BME280;41178;48.956;8.130;2022-10-31T03:49:28;100210.78;;;15.63;52.33
55317;BME280;41178;48.956;8.130;2022-10-31T03:54:46;100202.47;;;15.64;51.66
55317;BME280;41178;48.956;8.130;2022-10-31T04:00:05;100180.13;;;16.42;50.19
55317;BME280;41178;48.956;8.130;2022-10-31T04:05:10;100188.06;;;16.17;50.37
55317;BME280;41178;48.956;8.130;2022-10-31T04:10:15;100192.66;;;16.03;50.44
55317;BME280;41178;48.956;8.130;2022-10-31T04:15:17;100196.66;;;14.72;53.44
55317;BME280;41178;48.956;8.130;2022-10-31T04:20:30;100168.72;;;16.34;49.90
55317;BME280;41178;48.956;8.130;2022-10-31T04:25:32;100157.53;;;17.07;48.60
55317;BME280;41178;48.956;8.130;2022-10-31T04:30:33;100219.47;;;15.98;50.36
55317;BME280;41178;48.956;8.130;2022-10-31T04:35:35;100208.00;;;15.16;51.42
55317;BME280;41178;48.956;8.130;2022-10-31T04:40:36;100193.47;;;14.55;53.40
55317;BME280;41178;48.956;8.130;2022-10-31T04:45:38;100205.06;;;14.56;54.29
55317;BME280;41178;48.956;8.130;2022-10-31T04:50:40;100184.63;;;14.20;54.80
55317;BME280;41178;48.956;8.130;2022-10-31T04:55:42;100157.91;;;13.83;55.50
55317;BME280;41178;48.956;8.130;2022-10-31T05:00:43;100155.56;;;15.19;52.54
55317;BME280;41178;48.956;8.130;2022-10-31T05:05:45;100128.72;;;12.66;56.45
55317;BME280;41178;48.956;8.130;2022-10-31T05:10:47;100143.78;;;13.81;55.30
55317;BME280;41178;48.956;8.130;2022-10-31T05:15:49;100160.31;;;12.64;57.17
55317;BME280;41178;48.956;8.130;2022-10-31T05:20:52;100134.25;;;11.45;59.03
55317;BME280;41178;48.956;8.130;2022-10-31T05:25:53;100131.66;;;12.71;56.61
55317;BME280;41178;48.956;8.130;2022-10-31T05:30:55;100118.66;;;13.67;54.47
55317;BME280;41178;48.956;8.130;2022-10-31T05:35:57;100189.84;;;12.64;54.52
55317;BME280;41178;48.956;8.130;2022-10-31T05:40:58;100129.81;;;14.34;52.46
55317;BME280;41178;48.956;8.130;2022-10-31T05:46:03;100175.47;;;12.93;56.69
55317;BME280;41178;48.956;8.130;2022-10-31T05:51:05;100141.53;;;13.85;53.95
55317;BME280;41178;48.956;8.130;2022-10-31T05:56:06;100185.06;;;13.67;54.27
55317;BME280;41178;48.956;8.130;2022-10-31T06:01:08;100160.22;;;13.93;54.25
55317;BME280;41178;48.956;8.130;2022-10-31T06:06:10;100203.16;;;12.93;55.90
55317;BME280;41178;48.956;8.130;2022-10-31T06:11:11;100178.25;;;13.43;55.45
55317;BME280;41178;48.956;8.130;2022-10-31T06:16:13;100181.34;;;13.40;56.24
55317;BME280;41178;48.956;8.130;2022-10-31T06:21:14;100168.19;;;15.31;51.60
55317;BME280;41178;48.956;8.130;2022-10-31T06:26:19;100211.75;;;13.04;56.72
55317;BME280;41178;48.956;8.130;2022-10-31T06:31:21;100206.19;;;13.98;54.39
55317;BME280;41178;48.956;8.130;2022-10-31T06:36:22;100192.72;;;13.63;54.73
55317;BME280;41178;48.956;8.130;2022-10-31T06:41:24;100196.31;;;14.06;53.88
55317;BME280;41178;48.956;8.130;2022-10-31T06:46:26;100224.16;;;12.53;57.68
55317;BME280;41178;48.956;8.130;2022-10-31T06:51:27;100173.13;;;14.04;54.75
55317;BME280;41178;48.956;8.130;2022-10-31T06:56:29;100187.22;;;13.50;55.99
55317;BME280;41178;48.956;8.130;2022-10-31T07:01:30;100177.16;;;14.22;54.76
55317;BME280;41178;48.956;8.130;2022-10-31T07:06:32;100190.84;;;15.57;52.11
55317;BME280;41178;48.956;8.130;2022-10-31T07:11:34;100257.53;;;14.25;53.03
55317;BME280;41178;48.956;8.130;2022-10-31T07:16:35;100264.69;;;13.40;55.65
55317;BME280;41178;48.956;8.130;2022-10-31T07:21:37;100203.03;;;16.06;50.67
55317;BME280;41178;48.956;8.130;2022-10-31T07:26:39;100254.19;;;15.06;52.18
55317;BME280;41178;48.956;8.130;2022-10-31T07:31:40;100235.56;;;15.18;52.74
55317;BME280;41178;48.956;8.130;2022-10-31T07:36:42;100236.88;;;15.89;51.13
55317;BME280;41178;48.956;8.130;2022-10-31T07:41:43;100258.25;;;16.04;50.34
55317;BME280;41178;48.956;8.130;2022-10-31T07:46:45;100288.13;;;14.52;53.23
55317;BME280;41178;48.956;8.130;2022-10-31T07:51:46;100264.47;;;14.41;54.57
55317;BME280;41178;48.956;8.130;2022-10-31T07:56:48;100272.59;;;13.70;55.96
55317;BME280;41178;48.956;8.130;2022-10-31T08:01:50;100213.41;;;15.29;53.06
55317;BME280;41178;48.956;8.130;2022-10-31T08:06:51;100249.03;;;14.63;54.37
55317;BME280;41178;48.956;8.130;2022-10-31T08:11:53;100271.41;;;14.00;55.18
55317;BME280;41178;48.956;8.130;2022-10-31T08:16:55;100200.97;;;15.95;52.06
55317;BME280;41178;48.956;8.130;2022-10-31T08:21:56;100279.88;;;13.97;55.74
55317;BME280;41178;48.956;8.130;2022-10-31T08:26:59;100237.81;;;14.53;55.13
55317;BME280;41178;48.956;8.130;2022-10-31T08:32:01;100266.44;;;13.54;56.98
55317;BME280;41178;48.956;8.130;2022-10-31T08:37:02;100256.22;;;14.49;54.44
55317;BME280;41178;48.956;8.130;2022-10-31T08:42:04;100222.75;;;14.65;55.59
55317;BME280;41178;48.956;8.130;2022-10-31T08:47:05;100199.28;;;15.14;54.56
55317;BME280;41178;48.956;8.130;2022-10-31T08:52:07;100253.47;;;13.36;57.97
55317;BME280;41178;48.956;8.130;2022-10-31T08:57:14;100170.09;;;15.71;54.57
55317;BME280;41178;48.956;8.130;2022-10-31T09:02:16;100183.97;;;15.41;54.68
55317;BME280;41178;48.956;8.130;2022-10-31T09:07:18;100190.75;;;16.17;52.50
55317;BME280;41178;48.956;8.130;2022-10-31T09:12:21;100174.91;;;17.25;49.94
55317;BME280;41178;48.956;8.130;2022-10-31T09:17:23;100253.41;;;15.12;54.39
55317;BME280;41178;48.956;8.130;2022-10-31T09:22:25;100218.25;;;15.61;53.53
55317;BME280;41178;48.956;8.130;2022-10-31T09:27:27;100225.38;;;14.93;55.07
55317;BME280;41178;48.956;8.130;2022-10-31T09:32:28;100176.69;;;16.02;53.46
55317;BME280;41178;48.956;8.130;2022-10-31T09:37:30;100209.72;;;15.70;52.55
55317;BME280;41178;48.956;8.130;2022-10-31T09:48:06;100192.84;;;16.09;52.08
55317;BME280;41178;48.956;8.130;2022-10-31T09:53:22;100220.06;;;15.27;54.25
55317;BME280;41178;48.956;8.130;2022-10-31T09:58:27;100182.22;;;16.34;51.88
55317;BME280;41178;48.956;8.130;2022-10-31T10:03:42;100170.78;;;16.38;53.02
55317;BME280;41178;48.956;8.130;2022-10-31T10:08:46;100139.50;;;18.51;49.77
55317;BME280;41178;48.956;8.130;2022-10-31T10:19:14;100134.66;;;17.10;51.70
55317;BME280;41178;48.956;8.130;2022-10-31T10:34:58;100110.50;;;17.15;52.49
55317;BME280;41178;48.956;8.130;2022-10-31T10:40:18;100190.22;;;15.68;55.44
55317;BME280;41178;48.956;8.130;2022-10-31T10:50:48;100091.47;;;17.03;52.98
55317;BME280;41178;48.956;8.130;2022-10-31T11:06:19;100109.28;;;14.88;57.37
55317;BME280;41178;48.956;8.130;2022-10-31T11:11:25;100091.06;;;14.97;57.83
55317;BME280;41178;48.956;8.130;2022-10-31T11:16:40;100062.91;;;16.82;54.05
55317;BME280;41178;48.956;8.130;2022-10-31T11:21:43;100049.34;;;17.14;53.33
55317;BME280;41178;48.956;8.130;2022-10-31T11:27:21;100052.00;;;16.95;53.74
55317;BME280;41178;48.956;8.130;2022-10-31T11:32:24;100063.97;;;17.31;52.30
55317;BME280;41178;48.956;8.130;2022-10-31T11:37:29;100063.63;;;17.46;52.21
55317;BME280;41178;48.956;8.130;2022-10-31T11:42:39;100135.00;;;15.38;56.04
55317;BME280;41178;48.956;8.130;2022-10-31T11:47:48;100047.81;;;16.99;52.74
55317;BME280;41178;48.956;8.130;2022-10-31T11:52:55;100042.34;;;17.50;52.41
55317;BME280;41178;48.956;8.130;2022-10-31T11:57:57;100052.25;;;16.87;52.77
55317;BME280;41178;48.956;8.130;2022-10-31T12:08:29;100008.59;;;16.84;54.52
55317;BME280;41178;48.956;8.130;2022-10-31T12:14:05;100016.75;;;17.09;53.56
55317;BME280;41178;48.956;8.130;2022-10-31T12:50:16;99975.75;;;16.87;54.30
55317;BME280;41178;48.956;8.130;2022-10-31T13:00:43;99975.41;;;16.13;55.18
55317;BME280;41178;48.956;8.130;2022-10-31T13:05:49;99902.31;;;18.24;51.33
55317;BME280;41178;48.956;8.130;2022-10-31T13:16:19;99904.28;;;18.48;51.11
55317;BME280;41178;48.956;8.130;2022-10-31T13:21:26;99975.00;;;17.23;53.35
55317;BME280;41178;48.956;8.130;2022-10-31T13:26:38;99889.16;;;18.40;50.99
55317;BME280;41178;48.956;8.130;2022-10-31T13:31:42;99955.09;;;16.49;54.99
55317;BME280;41178;48.956;8.130;2022-10-31T13:36:53;99918.91;;;16.50;55.06
55317;BME280;41178;48.956;8.130;2022-10-31T13:42:17;99916.13;;;16.81;53.65
55317;BME280;41178;48.956;8.130;2022-10-31T13:47:25;99850.53;;;18.68;50.59
55317;BME280;41178;48.956;8.130;2022-10-31T13:52:27;99842.28;;;18.98;50.16
55317;BME280;41178;48.956;8.130;2022-10-31T13:57:38;99861.34;;;19.15;49.81
55317;BME280;41178;48.956;8.130;2022-10-31T14:02:47;99847.78;;;19.15;50.22
55317;BME280;41178;48.956;8.130;2022-10-31T14:07:51;99900.69;;;17.63;51.94
55317;BME280;41178;48.956;8.130;2022-10-31T14:13:13;99839.91;;;18.78;49.93
55317;BME280;41178;48.956;8.130;2022-10-31T14:18:29;99854.53;;;18.77;50.10
55317;BME280;41178;48.956;8.130;2022-10-31T14:23:35;99825.81;;;20.20;48.48
55317;BME280;41178;48.956;8.130;2022-10-31T14:28:37;99819.28;;;19.87;48.88
55317;BME280;41178;48.956;8.130;2022-10-31T14:33:42;99801.25;;;19.64;49.38
55317;BME280;41178;48.956;8.130;2022-10-31T14:39:13;99833.94;;;18.41;50.88
55317;BME280;41178;48.956;8.130;2022-10-31T14:50:29;99782.91;;;19.14;50.35
55317;BME280;41178;48.956;8.130;2022-10-31T14:55:45;99790.78;;;18.75;50.55
55317;BME280;41178;48.956;8.130;2022-10-31T15:05:12;99735.38;;;16.55;55.92
55317;BME280;41178;48.956;8.130;2022-10-31T15:10:26;99723.69;;;16.61;55.52
55317;BME280;41178;48.956;8.130;2022-10-31T15:15:30;99726.34;;;16.24;55.74
55317;BME280;41178;48.956;8.130;2022-10-31T15:20:41;99682.88;;;16.69;54.97
55317;BME280;41178;48.956;8.130;2022-10-31T15:25:44;99668.44;;;16.45;54.88
55317;BME280;41178;48.956;8.130;2022-10-31T15:30:57;99670.50;;;17.22;53.58
55317;BME280;41178;48.956;8.130;2022-10-31T15:36:01;99721.03;;;15.35;56.35
55317;BME280;41178;48.956;8.130;2022-10-31T15:41:17;99696.28;;;18.02;52.15
55317;BME280;41178;48.956;8.130;2022-10-31T15:46:23;99774.25;;;16.35;54.40
55317;BME280;41178;48.956;8.130;2022-10-31T15:51:29;99756.84;;;16.06;55.68
55317;BME280;41178;48.956;8.130;2022-10-31T15:56:32;99810.09;;;15.92;56.44
55317;BME280;41178;48.956;8.130;2022-10-31T16:01:34;99707.22;;;17.84;52.39
55317;BME280;41178;48.956;8.130;2022-10-31T16:06:36;99769.81;;;16.41;53.94
55317;BME280;41178;48.956;8.130;2022-10-31T16:11:38;99705.59;;;17.52;53.22
55317;BME280;41178;48.956;8.130;2022-10-31T16:16:44;99686.72;;;17.76;51.57
55317;BME280;41178;48.956;8.130;2022-10-31T16:21:51;99747.34;;;16.66;53.80
55317;BME280;41178;48.956;8.130;2022-10-31T16:27:04;99685.22;;;17.92;51.14
55317;BME280;41178;48.956;8.130;2022-10-31T16:37:27;99713.03;;;16.48;54.51
55317;BME280;41178;48.956;8.130;2022-10-31T16:42:29;99679.72;;;15.73;57.75
55317;BME280;41178;48.956;8.130;2022-10-31T16:47:31;99712.69;;;15.43;57.29
55317;BME280;41178;48.956;8.130;2022-10-31T16:52:32;99652.44;;;17.34;53.21
55317;BME280;41178;48.956;8.130;2022-10-31T16:57:50;99721.66;;;15.05;58.26
55317;BME280;41178;48.956;8.130;2022-10-31T17:02:56;99710.84;;;16.56;54.52
55317;BME280;41178;48.956;8.130;2022-10-31T17:07:58;99780.22;;;14.65;59.79
55317;BME280;41178;48.956;8.130;2022-10-31T17:13:02;99758.75;;;14.31;59.54
55317;BME280;41178;48.956;8.130;2022-10-31T17:18:05;99764.78;;;14.07;60.97
55317;BME280;41178;48.956;8.130;2022-10-31T17:23:09;99719.28;;;14.84;59.86
55317;BME280;41178;48.956;8.130;2022-10-31T17:28:12;99756.41;;;14.62;59.75
55317;BME280;41178;48.956;8.130;2022-10-31T17:33:15;99743.03;;;14.21;60.79
55317;BME280;41178;48.956;8.130;2022-10-31T17:38:17;99761.69;;;14.16;61.11
55317;BME280;41178;48.956;8.130;2022-10-31T17:43:19;99760.63;;;14.04;61.80
55317;BME280;41178;48.956;8.130;2022-10-31T17:48:20;99757.53;;;14.00;62.04
55317;BME280;41178;48.956;8.130;2022-10-31T17:53:22;99747.97;;;14.45;61.87
55317;BME280;41178;48.956;8.130;2022-10-31T17:58:24;99740.06;;;14.63;60.89
55317;BME280;41178;48.956;8.130;2022-10-31T18:03:26;99749.50;;;14.07;62.06
55317;BME280;41178;48.956;8.130;2022-10-31T18:08:30;99736.63;;;15.65;58.40
55317;BME280;41178;48.956;8.130;2022-10-31T18:13:31;99747.25;;;17.09;54.98
55317;BME280;41178;48.956;8.130;2022-10-31T18:18:33;99758.09;;;17.51;52.76
55317;BME280;41178;48.956;8.130;2022-10-31T18:23:35;99774.16;;;17.34;52.90
55317;BME280;41178;48.956;8.130;2022-10-31T18:28:37;99807.09;;;17.73;52.15
55317;BME280;41178;48.956;8.130;2022-10-31T18:33:38;99835.50;;;15.84;56.56
55317;BME280;41178;48.956;8.130;2022-10-31T18:38:42;99800.44;;;16.90;53.85
55317;BME280;41178;48.956;8.130;2022-10-31T18:43:47;99824.03;;;17.69;52.18
55317;BME280;41178;48.956;8.130;2022-10-31T18:48:48;99833.69;;;16.54;54.04
55317;BME280;41178;48.956;8.130;2022-10-31T18:53:55;99857.25;;;15.90;55.43
55317;BME280;41178;48.956;8.130;2022-10-31T18:58:58;99793.84;;;17.96;51.59
55317;BME280;41178;48.956;8.130;2022-10-31T19:04:03;99834.19;;;16.19;54.87
55317;BME280;41178;48.956;8.130;2022-10-31T19:09:06;99840.88;;;15.46;56.54
55317;BME280;41178;48.956;8.130;2022-10-31T19:14:11;99788.66;;;16.22;54.83
55317;BME280;41178;48.956;8.130;2022-10-31T19:19:13;99784.34;;;17.32;52.63
55317;BME280;41178;48.956;8.130;2022-10-31T19:24:15;99818.41;;;16.66;53.51
55317;BME280;41178;48.956;8.130;2022-10-31T19:29:17;99800.03;;;17.42;52.04
55317;BME280;41178;48.956;8.130;2022-10-31T19:34:18;99796.56;;;17.05;52.37
55317;BME280;41178;48.956;8.130;2022-10-31T19:39:20;99839.47;;;16.57;53.57
55317;BME280;41178;48.956;8.130;2022-10-31T19:44:21;99845.41;;;15.91;55.01
55317;BME280;41178;48.956;8.130;2022-10-31T19:49:23;99837.53;;;16.14;53.88
55317;BME280;41178;48.956;8.130;2022-10-31T19:54:25;99828.88;;;16.37;53.35
55317;BME280;41178;48.956;8.130;2022-10-31T19:59:26;99791.31;;;16.91;53.28
55317;BME280;41178;48.956;8.130;2022-10-31T20:04:28;99837.66;;;15.24;56.02
55317;BME280;41178;48.956;8.130;2022-10-31T20:09:30;99775.44;;;17.44;52.10
55317;BME280;41178;48.956;8.130;2022-10-31T20:14:31;99804.88;;;16.85;52.63
55317;BME280;41178;48.956;8.130;2022-10-31T20:19:33;99788.97;;;13.93;58.35
55317;BME280;41178;48.956;8.130;2022-10-31T20:24:35;99801.97;;;13.56;60.09
55317;BME280;41178;48.956;8.130;2022-10-31T20:29:36;99820.88;;;14.10;59.47
55317;BME280;41178;48.956;8.130;2022-10-31T20:34:38;99787.50;;;14.44;59.38
55317;BME280;41178;48.956;8.130;2022-10-31T20:39:39;99749.66;;;16.00;55.01
55317;BME280;41178;48.956;8.130;2022-10-31T20:44:41;99783.59;;;16.07;54.18
55317;BME280;41178;48.956;8.130;2022-10-31T20:49:43;99848.09;;;15.13;56.15
55317;BME280;41178;48.956;8.130;2022-10-31T20:55:08;99819.63;;;15.24;56.16
55317;BME280;41178;48.956;8.130;2022-10-31T21:00:36;99791.75;;;15.44;55.86
55317;BME280;41178;48.956;8.130;2022-10-31T21:05:37;99779.59;;;16.42;53.28
55317;BME280;41178;48.956;8.130;2022-10-31T21:10:39;99805.63;;;15.02;57.01
55317;BME280;41178;48.956;8.130;2022-10-31T21:16:09;99805.16;;;15.12;56.02
55317;BME280;41178;48.956;8.130;2022-10-31T21:21:36;99799.50;;;15.27;55.79
55317;BME280;41178;48.956;8.130;2022-10-31T21:27:01;99743.34;;;16.50;52.90
55317;BME280;41178;48.956;8.130;2022-10-31T21:32:28;99815.66;;;14.68;56.41
55317;BME280;41178;48.956;8.130;2022-10-31T21:37:54;99816.91;;;13.79;57.86
55317;BME280;41178;48.956;8.130;2022-10-31T21:43:22;99814.28;;;14.26;57.74
55317;BME280;41178;48.956;8.130;2022-10-31T21:48:49;99754.47;;;14.89;57.55
55317;BME280;41178;48.956;8.130;2022-10-31T21:54:14;99775.63;;;14.78;56.39
55317;BME280;41178;48.956;8.130;2022-10-31T21:59:52;99787.91;;;13.61;58.77
55317;BME280;41178;48.956;8.130;2022-10-31T22:05:17;99789.19;;;14.38;57.58
55317;BME280;41178;48.956;8.130;2022-10-31T22:10:43;99809.03;;;14.51;56.55
55317;BME280;41178;48.956;8.130;2022-10-31T22:16:12;99752.59;;;16.17;53.59
55317;BME280;41178;48.956;8.130;2022-10-31T22:21:45;99779.66;;;15.14;55.02
55317;BME280;41178;48.956;8.130;2022-10-31T22:27:11;99814.63;;;13.82;56.95
55317;BME280;41178;48.956;8.130;2022-10-31T22:32:37;99743.03;;;15.70;53.68
55317;BME280;41178;48.956;8.130;2022-10-31T22:38:04;99776.66;;;15.68;53.11
55317;BME280;41178;48.956;8.130;2022-10-31T22:43:30;99773.38;;;15.91;52.55
55317;BME280;41178;48.956;8.130;2022-10-31T22:48:59;99773.28;;;15.79;53.71
55317;BME280;41178;48.956;8.130;2022-10-31T22:54:25;99798.66;;;14.68;56.01
55317;BME280;41178;48.956;8.130;2022-10-31T22:59:50;99767.97;;;15.66;53.95
55317;BME280;41178;48.956;8.130;2022-10-31T23:05:16;99791.22;;;15.60;53.93
55317;BME280;41178;48.956;8.130;2022-10-31T23:10:42;99829.78;;;14.30;56.09
55317;BME280;41178;48.956;8.130;2022-10-31T23:16:10;99784.13;;;15.34;53.91
55317;BME280;41178;48.956;8.130;2022-10-31T23:21:38;99764.03;;;12.69;58.96
55317;BME280;41178;48.956;8.130;2022-10-31T23:27:21;99788.28;;;12.89;59.59
